createdAt,value
2023-01-11T00:01:49.091Z,86.84
2023-01-11T00:06:52.169Z,86.97
2023-01-11T00:11:55.133Z,87.13
2023-01-11T00:16:58.567Z,88.47
2023-01-11T00:22:01.547Z,87.66
2023-01-11T00:27:03.271Z,87.44
2023-01-11T00:32:05.632Z,87.47
2023-01-11T00:37:10.039Z,87.22
2023-01-11T00:42:30.554Z,86.76
2023-01-11T00:47:50.920Z,86.73
2023-01-11T00:52:53.887Z,87.20
2023-01-11T00:57:55.550Z,87.30
2023-01-11T01:02:57.277Z,87.16
2023-01-11T01:08:00.238Z,86.99
2023-01-11T01:13:22.184Z,86.80
2023-01-11T01:18:23.876Z,86.72
2023-01-11T01:23:26.851Z,86.90
2023-01-11T01:28:28.579Z,86.35
2023-01-11T01:33:30.263Z,86.71
2023-01-11T01:38:33.229Z,86.21
2023-01-11T01:43:53.408Z,86.06
2023-01-11T01:48:57.119Z,86.03
2023-01-11T01:54:01.619Z,86.24
2023-01-11T01:59:07.676Z,86.37
2023-01-11T02:04:11.188Z,86.39
2023-01-11T02:09:19.064Z,86.30
2023-01-11T02:14:20.832Z,86.55
2023-01-11T02:19:39.231Z,86.93
2023-01-11T02:24:56.575Z,86.95
2023-01-11T02:30:04.155Z,87.08
2023-01-11T02:35:12.380Z,86.97
2023-01-11T02:40:16.846Z,86.96
2023-01-11T02:45:29.879Z,86.99
2023-01-11T02:50:33.474Z,86.75
2023-01-11T02:55:38.029Z,87.34
2023-01-11T03:00:41.204Z,87.37
2023-01-11T03:05:45.857Z,87.61
2023-01-11T03:10:53.971Z,87.85
2023-01-11T03:16:04.976Z,87.94
2023-01-11T03:21:14.336Z,87.89
2023-01-11T03:26:19.228Z,88.21
2023-01-11T03:31:22.977Z,88.51
2023-01-11T03:36:27.217Z,88.26
2023-01-11T03:41:29.877Z,88.19
2023-01-11T03:46:34.380Z,88.43
2023-01-11T03:51:38.670Z,88.48
2023-01-11T03:56:43.082Z,88.59
2023-01-11T04:01:46.135Z,88.32
2023-01-11T04:06:47.904Z,88.64
2023-01-11T04:11:49.630Z,88.38
2023-01-11T04:16:52.626Z,88.12
2023-01-11T04:21:54.310Z,88.23
2023-01-11T04:26:56.053Z,88.75
2023-01-11T04:31:59.141Z,88.68
2023-01-11T04:37:00.879Z,89.53
2023-01-11T04:42:21.056Z,89.84
2023-01-11T04:47:24.238Z,89.73
2023-01-11T04:52:25.897Z,89.27
2023-01-11T04:57:27.599Z,89.32
2023-01-11T05:02:30.601Z,89.03
2023-01-11T05:07:32.310Z,89.10
2023-01-11T05:12:34.124Z,89.31
2023-01-11T05:17:37.137Z,89.15
2023-01-11T05:22:38.901Z,89.24
2023-01-11T05:27:40.585Z,89.61
2023-01-11T05:32:43.645Z,89.51
2023-01-11T05:37:45.294Z,90.54
2023-01-11T05:42:47.185Z,90.39
2023-01-11T05:47:52.286Z,90.24
2023-01-11T05:52:53.926Z,89.88
2023-01-11T05:57:55.611Z,89.38
2023-01-11T06:03:00.325Z,88.89
2023-01-11T06:08:02.023Z,89.34
2023-01-11T06:13:23.028Z,89.54
2023-01-11T06:18:26.061Z,89.83
2023-01-11T06:23:28.674Z,90.57
2023-01-11T06:28:30.344Z,90.67
2023-01-11T06:33:33.446Z,90.66
2023-01-11T06:38:35.260Z,90.81
2023-01-11T06:43:37.826Z,91.80
2023-01-11T06:48:40.864Z,92.22
2023-01-11T06:53:42.740Z,92.65
2023-01-11T06:58:46.985Z,93.17
2023-01-11T07:03:50.791Z,93.81
2023-01-11T07:08:52.537Z,94.43
2023-01-11T07:13:54.259Z,95.54
2023-01-11T07:18:57.283Z,96.05
2023-01-11T07:23:58.970Z,96.43
2023-01-11T07:29:00.634Z,96.71
2023-01-11T07:34:03.692Z,97.03
2023-01-11T07:39:05.394Z,97.31
2023-01-11T07:44:07.066Z,97.63
2023-01-11T07:49:10.429Z,97.97
2023-01-11T07:54:12.068Z,97.68
2023-01-11T07:59:13.701Z,97.69
2023-01-11T08:04:16.798Z,97.37
2023-01-11T08:09:18.751Z,97.41
2023-01-11T08:14:39.208Z,97.33
2023-01-11T08:19:42.442Z,97.08
2023-01-11T08:24:44.089Z,96.71
2023-01-11T08:29:46.124Z,96.89
2023-01-11T08:34:49.371Z,96.67
2023-01-11T08:39:51.267Z,97.35
2023-01-11T08:44:52.918Z,97.32
2023-01-11T08:49:55.900Z,97.51
2023-01-11T08:54:57.556Z,97.21
2023-01-11T08:59:59.199Z,97.66
2023-01-11T09:05:02.194Z,98.54
2023-01-11T09:10:04.298Z,98.77
2023-01-11T09:15:06.989Z,99.13
2023-01-11T09:20:12.036Z,99.47
2023-01-11T09:25:13.873Z,99.22
2023-01-11T09:30:16.725Z,99.15
2023-01-11T09:35:19.901Z,99.04
2023-01-11T09:40:22.291Z,99.24
2023-01-11T09:45:24.451Z,99.20
2023-01-11T09:50:28.576Z,99.01
2023-01-11T09:55:32.963Z,99.06
2023-01-11T10:00:42.801Z,98.51
2023-01-11T10:05:59.472Z,98.22
2023-01-11T10:18:30.187Z,98.10
2023-01-11T10:22:00.492Z,97.75
2023-01-11T10:27:03.798Z,97.29
2023-01-11T10:32:22.826Z,97.58
2023-01-11T10:37:50.344Z,97.32
2023-01-11T10:42:54.702Z,97.54
2023-01-11T10:47:59.199Z,97.44
2023-01-11T10:53:07.056Z,97.89
2023-01-11T10:58:12.870Z,97.89
2023-01-11T11:03:38.406Z,97.86
2023-01-11T11:08:44.487Z,98.12
2023-01-11T11:13:49.280Z,98.57
2023-01-11T11:18:51.011Z,98.65
2023-01-11T11:23:56.902Z,98.40
2023-01-11T11:28:59.708Z,98.30
2023-01-11T11:34:06.788Z,98.45
2023-01-11T11:39:11.727Z,98.30
2023-01-11T11:44:16.269Z,97.70
2023-01-11T11:49:18.041Z,97.87
2023-01-11T11:54:23.157Z,97.96
2023-01-11T11:59:26.204Z,98.16
2023-01-11T12:04:33.543Z,98.02
2023-01-11T12:09:36.846Z,98.22
2023-01-11T12:14:38.515Z,99.82
2023-01-11T12:19:41.691Z,100.00
2023-01-11T12:24:44.849Z,100.00
2023-01-11T12:29:51.774Z,100.00
2023-01-11T12:35:00.863Z,100.00
2023-01-11T12:40:08.759Z,100.00
2023-01-11T12:45:16.646Z,100.00
2023-01-11T12:50:20.919Z,100.00
2023-01-11T12:55:42.021Z,100.00
2023-01-11T13:00:54.235Z,100.00
2023-01-11T13:06:00.427Z,100.00
2023-01-11T13:11:06.159Z,100.00
2023-01-11T13:16:10.297Z,100.00
2023-01-11T13:21:18.166Z,100.00
2023-01-11T13:26:23.104Z,100.00
2023-01-11T13:31:24.773Z,100.00
2023-01-11T13:36:28.233Z,100.00
2023-01-11T13:41:33.200Z,100.00
2023-01-11T13:46:41.543Z,100.00
2023-01-11T13:51:46.384Z,100.00
2023-01-11T13:56:52.006Z,100.00
2023-01-11T14:01:55.730Z,100.00
2023-01-11T14:07:04.935Z,100.00
2023-01-11T14:12:10.455Z,100.00
2023-01-11T14:17:27.169Z,100.00
2023-01-11T14:22:33.399Z,100.00
2023-01-11T14:27:44.436Z,100.00
2023-01-11T14:33:25.821Z,100.00
2023-01-11T14:39:05.586Z,100.00
2023-01-11T14:44:17.846Z,100.00
2023-01-11T14:49:26.741Z,100.00
2023-01-11T14:54:29.058Z,100.00
2023-01-11T14:59:37.296Z,100.00
2023-01-11T15:04:59.328Z,100.00
2023-01-11T15:10:04.454Z,100.00
2023-01-11T15:15:07.443Z,100.00
2023-01-11T15:20:11.243Z,100.00
2023-01-11T15:25:21.808Z,100.00
2023-01-11T15:30:37.059Z,100.00
2023-01-11T15:35:38.726Z,100.00
2023-01-11T15:40:42.228Z,100.00
2023-01-11T15:46:42.440Z,100.00
2023-01-11T15:52:02.957Z,100.00
2023-01-11T15:57:20.701Z,100.00
2023-01-11T16:03:04.326Z,100.00
2023-01-11T16:08:12.664Z,100.00
2023-01-11T16:13:27.834Z,100.00
2023-01-11T16:18:33.832Z,100.00
2023-01-11T16:23:35.498Z,100.00
2023-01-11T16:28:41.449Z,100.00
2023-01-11T16:33:43.101Z,100.00
2023-01-11T16:38:54.116Z,99.86
2023-01-11T16:43:59.612Z,99.16
2023-01-11T16:49:08.639Z,98.99
2023-01-11T16:54:11.687Z,98.69
2023-01-11T16:59:20.151Z,97.68
2023-01-11T17:04:26.243Z,97.24
2023-01-11T17:09:29.555Z,96.72
2023-01-11T17:14:42.411Z,96.61
2023-01-11T17:19:45.847Z,96.40
2023-01-11T17:24:49.944Z,96.54
2023-01-11T17:29:53.627Z,96.69
2023-01-11T17:34:55.303Z,96.21
2023-01-11T17:39:57.216Z,96.38
2023-01-11T17:45:13.211Z,96.34
2023-01-11T17:50:23.506Z,96.11
2023-01-11T17:55:25.281Z,96.31
2023-01-11T18:00:29.354Z,95.89
2023-01-11T18:05:31.008Z,95.75
2023-01-11T18:10:33.781Z,95.79
2023-01-11T18:15:36.884Z,96.23
2023-01-11T18:20:38.847Z,95.85
2023-01-11T18:25:40.488Z,95.46
2023-01-11T18:30:45.570Z,95.21
2023-01-11T18:35:48.679Z,94.92
2023-01-11T18:40:50.770Z,94.70
2023-01-11T18:45:53.869Z,94.31
2023-01-11T18:50:56.079Z,93.99
2023-01-11T18:55:57.764Z,93.71
2023-01-11T19:01:00.829Z,93.30
2023-01-11T19:06:02.696Z,92.89
2023-01-11T19:11:04.727Z,91.92
2023-01-11T19:16:08.258Z,91.72
2023-01-11T19:21:11.824Z,91.42
2023-01-11T19:26:13.655Z,91.09
2023-01-11T19:31:17.588Z,90.88
2023-01-11T19:36:19.463Z,90.45
2023-01-11T19:41:21.163Z,90.16
2023-01-11T19:46:31.477Z,90.02
2023-01-11T19:51:33.889Z,90.27
2023-01-11T19:56:35.724Z,90.08
2023-01-11T20:01:38.916Z,90.28
2023-01-11T20:06:41.418Z,90.40
2023-01-11T20:11:43.122Z,89.99
2023-01-11T20:16:46.222Z,90.08
2023-01-11T20:21:47.939Z,89.78
2023-01-11T20:26:49.661Z,89.43
2023-01-11T20:31:52.797Z,89.11
2023-01-11T20:36:54.524Z,89.48
2023-01-11T20:41:56.358Z,89.67
2023-01-11T20:46:59.426Z,92.56
2023-01-11T20:52:01.096Z,91.55
2023-01-11T20:57:05.585Z,88.92
2023-01-11T21:02:09.746Z,88.18
2023-01-11T21:07:11.498Z,88.36
2023-01-11T21:12:13.185Z,88.49
2023-01-11T21:17:16.352Z,88.85
2023-01-11T21:22:17.999Z,88.93
2023-01-11T21:27:19.827Z,88.14
2023-01-11T21:32:23.056Z,88.54
2023-01-11T21:37:24.990Z,88.70
2023-01-11T21:42:26.649Z,88.31
2023-01-11T21:47:29.664Z,88.35
2023-01-11T21:52:31.440Z,88.35
2023-01-11T21:57:33.335Z,88.42
2023-01-11T22:02:36.322Z,88.43
2023-01-11T22:07:40.183Z,88.58
2023-01-11T22:12:42.112Z,88.53
2023-01-11T22:17:45.168Z,88.34
2023-01-11T22:22:46.948Z,88.41
2023-01-11T22:27:48.621Z,87.92
2023-01-11T22:32:51.645Z,87.75
2023-01-11T22:37:53.303Z,87.97
2023-01-11T22:42:55.035Z,88.26
2023-01-11T22:47:59.676Z,88.24
2023-01-11T22:53:01.731Z,88.42
2023-01-11T22:58:03.427Z,88.53
2023-01-11T23:03:06.579Z,88.57
2023-01-11T23:08:08.351Z,88.33
2023-01-11T23:13:28.752Z,88.37
2023-01-11T23:18:31.849Z,87.08
2023-01-11T23:23:33.523Z,86.54
2023-01-11T23:28:35.152Z,85.96
2023-01-11T23:33:38.095Z,85.67
2023-01-11T23:38:39.793Z,85.86
2023-01-11T23:43:41.495Z,85.71
2023-01-11T23:48:44.568Z,85.96
2023-01-11T23:53:46.346Z,86.29
2023-01-11T23:58:48.077Z,86.12
